Time;durP1;ratioP1;P1;durP2;ratioP2;P2;SDS_P1;SDS_P2;PMS_P1;PMS_P2;Temp;Humidity;BMP_temperature;BMP_pressure;BME280_temperature;BME280_humidity;BME280_pressure;Samples;Min_cycle;Max_cycle;Signal;HPM_P1;HPM_P2
2021/11/26 00:00:47;;;;;;;12.80;6.93;;;;;;;6.17;79.36;97221.22;5016637;28;20093;-90
2021/11/26 00:03:26;;;;;;;9.88;5.13;;;;;;;6.52;79.55;97278.75;5006950;28;20040;-91
2021/11/26 00:06:03;;;;;;;11.45;6.40;;;;;;;6.14;79.94;97215.22;5042503;28;20423;-91
2021/11/26 00:08:29;;;;;;;7.90;5.07;;;;;;;6.41;79.83;97258.97;5033264;28;20501;-91
2021/11/26 00:10:57;;;;;;;12.02;6.70;;;;;;;6.39;80.15;97258.19;5024938;28;20044;-93
2021/11/26 00:13:29;;;;;;;9.95;6.03;;;;;;;6.29;79.85;97248.97;5028005;28;20026;-91
2021/11/26 00:16:02;;;;;;;9.65;4.30;;;;;;;6.36;79.95;97263.66;5016301;28;20057;-90
2021/11/26 00:18:30;;;;;;;10.80;5.70;;;;;;;6.23;80.22;97251.91;5029451;28;20479;-92
2021/11/26 00:20:56;;;;;;;14.88;6.60;;;;;;;6.42;79.81;97268.69;5015451;28;20021;-91
2021/11/26 00:23:22;;;;;;;10.85;4.72;;;;;;;6.31;80.01;97265.66;5014576;28;20094;-91
2021/11/26 00:25:47;;;;;;;6.82;3.75;;;;;;;6.24;80.40;97267.81;5006714;28;20029;-90
2021/11/26 00:28:13;;;;;;;13.98;7.68;;;;;;;5.91;80.52;97203.91;5009947;28;20025;-91
2021/11/26 00:30:39;;;;;;;15.70;7.75;;;;;;;5.97;81.15;97235.47;5006238;28;20030;-91
2021/11/26 00:33:05;;;;;;;12.13;7.20;;;;;;;5.89;81.29;97221.72;5006501;28;20033;-92
2021/11/26 00:35:31;;;;;;;11.40;6.25;;;;;;;6.20;81.15;97257.38;5043004;28;20028;-92
2021/11/26 00:37:57;;;;;;;13.88;8.13;;;;;;;6.28;81.22;97277.31;5043174;28;20033;-92
2021/11/26 00:40:30;;;;;;;17.58;9.15;;;;;;;6.18;81.56;97269.88;5026563;28;20060;-90
2021/11/26 00:42:56;;;;;;;12.95;8.18;;;;;;;6.05;81.63;97247.53;5035116;28;20029;-91
2021/11/26 00:45:23;;;;;;;16.50;9.40;;;;;;;6.06;81.74;97243.94;5005230;28;20501;-89
2021/11/26 00:47:49;;;;;;;11.00;5.65;;;;;;;5.80;81.91;97227.44;5019405;28;20027;-90
2021/11/26 00:50:19;;;;;;;15.07;7.63;;;;;;;5.83;81.93;97240.56;5022081;28;20481;-90
2021/11/26 00:52:47;;;;;;;13.55;7.38;;;;;;;5.65;82.29;97214.06;5012342;28;20045;-91
2021/11/26 00:55:14;;;;;;;17.40;10.27;;;;;;;5.75;82.87;97245.38;5038194;28;20056;-92
2021/11/26 00:57:41;;;;;;;11.70;6.60;;;;;;;5.83;83.12;97268.91;5008924;28;20064;-91
2021/11/26 01:00:22;;;;;;;14.88;9.05;;;;;;;5.77;83.79;97264.75;5038657;28;20057;-91
2021/11/26 01:03:12;;;;;;;12.95;6.60;;;;;;;5.76;83.97;97247.09;5042245;28;20070;-90
2021/11/26 01:05:51;;;;;;;13.93;6.97;;;;;;;5.78;84.14;97260.31;5018147;28;20036;-90
2021/11/26 01:08:33;;;;;;;14.25;6.30;;;;;;;5.75;84.45;97261.28;5013602;28;20052;-90
2021/11/26 01:10:59;;;;;;;11.25;6.22;;;;;;;5.32;84.68;97184.69;5021457;28;20036;-90
2021/11/26 01:13:25;;;;;;;14.23;5.82;;;;;;;5.57;84.52;97218.88;5022710;28;20037;-90
2021/11/26 01:15:51;;;;;;;9.73;5.80;;;;;;;5.59;84.72;97220.53;5023285;28;20028;-91
2021/11/26 01:18:18;;;;;;;6.78;3.83;;;;;;;5.56;84.81;97201.22;5006167;28;20025;-89
2021/11/26 01:20:44;;;;;;;10.07;5.85;;;;;;;5.47;84.51;97186.63;5021229;28;20116;-92
2021/11/26 01:23:13;;;;;;;9.18;4.90;;;;;;;5.44;84.08;97165.56;5021644;28;20112;-94
2021/11/26 01:25:40;;;;;;;4.55;3.25;;;;;;;5.56;83.83;97180.88;5009320;28;20029;-91
2021/11/26 01:28:07;;;;;;;8.55;4.65;;;;;;;5.56;83.57;97154.34;5010448;28;20037;-92
2021/11/26 01:30:49;;;;;;;10.43;5.30;;;;;;;5.47;83.72;97149.50;5024750;28;20056;-92
2021/11/26 01:33:16;;;;;;;13.75;8.05;;;;;;;5.67;83.53;97167.94;5015609;28;20025;-92
2021/11/26 01:35:42;;;;;;;11.65;6.28;;;;;;;5.64;83.90;97161.91;5025967;28;20095;-91
2021/11/26 01:38:09;;;;;;;11.60;6.65;;;;;;;5.40;84.06;97133.00;4990328;28;20026;-89
2021/11/26 01:40:39;;;;;;;12.98;6.90;;;;;;;5.65;84.70;97196.34;4992164;28;20022;-87
2021/11/26 01:43:14;;;;;;;7.75;4.82;;;;;;;5.44;85.13;97149.66;5040934;28;20044;-89
2021/11/26 01:45:54;;;;;;;13.15;7.38;;;;;;;5.27;84.65;97109.81;5019890;28;20029;-90
2021/11/26 01:48:49;;;;;;;13.30;7.72;;;;;;;5.29;84.35;97116.75;5034777;28;20032;-91
2021/11/26 01:51:57;;;;;;;12.75;6.97;;;;;;;5.62;84.79;97159.34;5047978;28;20025;-92
2021/11/26 01:54:22;;;;;;;13.23;7.60;;;;;;;5.47;84.72;97125.63;5056293;28;20120;-91
2021/11/26 01:57:21;;;;;;;8.65;5.28;;;;;;;5.61;84.76;97146.16;5014278;28;20065;-92
2021/11/26 01:59:51;;;;;;;9.27;4.65;;;;;;;5.51;84.40;97132.47;5030072;28;20027;-91
2021/11/26 02:02:18;;;;;;;10.75;6.68;;;;;;;5.34;84.40;97117.41;5021889;28;20044;-91
2021/11/26 02:04:44;;;;;;;17.75;7.43;;;;;;;5.24;84.55;97072.81;5019905;28;20033;-92
2021/11/26 02:07:20;;;;;;;9.07;4.80;;;;;;;5.33;84.42;97078.56;5045185;28;20094;-92
2021/11/26 02:09:58;;;;;;;14.43;7.93;;;;;;;5.49;84.80;97099.88;5033100;28;20025;-92
2021/11/26 02:12:23;;;;;;;12.05;6.85;;;;;;;5.44;84.93;97075.38;5024305;28;20033;-92
2021/11/26 02:14:49;;;;;;;10.60;5.05;;;;;;;5.42;84.83;97077.22;5027584;28;20079;-92
2021/11/26 02:17:15;;;;;;;10.82;6.55;;;;;;;5.57;85.07;97120.72;5022691;28;20087;-91
2021/11/26 02:19:41;;;;;;;10.80;6.75;;;;;;;5.45;84.97;97096.50;5011442;28;20033;-91
2021/11/26 02:22:07;;;;;;;15.77;8.52;;;;;;;5.51;85.31;97105.94;5028693;28;20119;-91
2021/11/26 02:24:56;;;;;;;13.45;7.72;;;;;;;5.49;85.30;97110.47;5019525;28;20029;-90
2021/11/26 02:27:25;;;;;;;15.63;8.43;;;;;;;4.92;85.94;97018.75;5013310;28;20037;-92
2021/11/26 02:29:57;;;;;;;16.75;9.25;;;;;;;5.41;86.03;97094.09;5035988;28;20106;-91
2021/11/26 02:32:35;;;;;;;7.75;3.85;;;;;;;4.96;85.70;97008.84;5020620;28;20025;-92
2021/11/26 02:35:21;;;;;;;15.95;7.97;;;;;;;5.36;85.41;97086.34;5028981;28;20170;-91
2021/11/26 02:37:48;;;;;;;9.40;5.40;;;;;;;5.17;85.35;97040.47;5027447;28;20420;-90
2021/11/26 02:40:22;;;;;;;10.32;6.05;;;;;;;5.38;85.25;97076.53;5044671;28;20021;-92
2021/11/26 02:42:53;;;;;;;11.90;7.75;;;;;;;5.26;85.46;97063.03;5022127;28;20029;-93
2021/11/26 02:45:20;;;;;;;10.90;5.57;;;;;;;5.01;85.27;97022.75;5008579;28;20026;-92
2021/11/26 02:47:47;;;;;;;12.75;7.65;;;;;;;5.16;85.71;97038.75;5024946;28;20025;-92
2021/11/26 02:50:23;;;;;;;15.25;7.60;;;;;;;5.35;85.64;97067.88;5040392;28;20044;-91
2021/11/26 02:52:49;;;;;;;14.73;8.27;;;;;;;5.26;85.54;97041.81;5034915;28;20554;-91
2021/11/26 02:55:17;;;;;;;10.75;5.97;;;;;;;5.40;85.49;97073.81;5023971;28;20057;-92
2021/11/26 02:57:48;;;;;;;11.82;6.45;;;;;;;5.39;85.09;97080.03;5007469;28;20038;-91
2021/11/26 03:00:18;;;;;;;16.52;7.25;;;;;;;5.16;84.84;97033.47;5007317;28;20049;-90
2021/11/26 03:03:15;;;;;;;14.82;7.72;;;;;;;5.34;84.92;97063.50;5025032;28;20429;-90
2021/11/26 03:05:41;;;;;;;16.42;6.97;;;;;;;4.93;84.66;96973.63;5009294;28;20045;-90
2021/11/26 03:08:10;;;;;;;11.45;6.82;;;;;;;5.22;84.08;97021.69;5013998;28;20120;-90
2021/11/26 03:10:45;;;;;;;17.83;8.45;;;;;;;5.41;84.10;97055.16;5024913;28;20025;-90
2021/11/26 03:13:11;;;;;;;11.93;6.63;;;;;;;5.54;83.85;97063.38;5039238;28;20033;-90
2021/11/26 03:15:40;;;;;;;11.18;6.65;;;;;;;5.55;83.29;97073.03;5013780;28;20033;-91
2021/11/26 03:18:18;;;;;;;11.02;6.10;;;;;;;5.39;83.44;97040.25;5012823;28;20033;-91
2021/11/26 03:20:45;;;;;;;10.88;5.57;;;;;;;5.23;83.46;97010.16;5006626;28;20025;-91
2021/11/26 03:23:11;;;;;;;13.25;7.40;;;;;;;5.43;83.67;97037.41;5006589;28;20555;-90
2021/11/26 03:25:37;;;;;;;14.43;8.43;;;;;;;5.26;83.68;96999.41;5023429;28;20500;-91
2021/11/26 03:28:03;;;;;;;14.90;8.25;;;;;;;5.21;84.57;97006.72;5015939;28;20033;-92
2021/11/26 03:33:59;;;;;;;14.65;6.57;;;;;;;5.36;84.82;97028.03;4962818;29;20099;-92
2021/11/26 03:36:34;;;;;;;15.25;6.53;;;;;;;4.96;84.17;96951.41;4938417;29;20028;-91
2021/11/26 03:38:59;;;;;;;11.55;5.32;;;;;;;5.12;83.93;96962.97;5024849;28;20567;-91
2021/11/26 03:41:28;;;;;;;13.77;7.28;;;;;;;5.20;84.30;97000.53;5025933;28;20068;-93
2021/11/26 03:43:53;;;;;;;15.90;8.40;;;;;;;5.20;85.11;97012.97;5017597;28;20111;-92
2021/11/26 03:46:20;;;;;;;16.35;9.13;;;;;;;5.24;84.60;96998.59;5021443;28;20060;-89
2021/11/26 03:48:46;;;;;;;13.52;7.55;;;;;;;5.28;83.91;96992.22;5025376;28;20115;-92
2021/11/26 03:51:12;;;;;;;13.40;7.20;;;;;;;5.28;83.44;96961.28;5027228;28;20408;-90
2021/11/26 03:57:06;;;;;;;8.10;4.60;;;;;;;5.17;82.94;96928.28;5054465;28;20135;-90
2021/11/26 03:59:35;;;;;;;;;;;;;;;5.47;83.09;96966.50;5015733;28;20044;-91
2021/11/26 04:02:10;;;;;;;8.63;4.70;;;;;;;5.30;82.42;96940.84;5028141;28;19936;-89
2021/11/26 04:04:36;;;;;;;12.90;7.40;;;;;;;5.36;82.45;96951.13;5024722;28;20035;-90
2021/11/26 04:07:32;;;;;;;13.60;7.85;;;;;;;5.30;82.74;96947.91;5007162;28;20028;-94
2021/11/26 04:10:00;;;;;;;10.85;5.55;;;;;;;5.11;83.65;96918.84;5007085;28;20022;-92
2021/11/26 04:12:57;;;;;;;15.50;7.82;;;;;;;5.19;85.18;96969.69;5008100;28;20040;-92
2021/11/26 04:15:24;;;;;;;12.13;7.13;;;;;;;4.97;85.06;96925.75;5002466;28;20041;-91
2021/11/26 04:17:52;;;;;;;9.52;4.85;;;;;;;5.17;84.15;96915.03;5007246;28;20045;-91
2021/11/26 04:20:19;;;;;;;17.17;9.75;;;;;;;5.23;83.05;96914.72;5031355;28;20029;-90
2021/11/26 04:22:46;;;;;;;9.65;4.93;;;;;;;5.29;82.61;96917.06;5014229;28;20055;-90
2021/11/26 04:25:15;;;;;;;10.98;6.45;;;;;;;5.51;82.18;96927.44;5006069;28;20037;-91
2021/11/26 04:27:54;;;;;;;12.45;7.55;;;;;;;5.20;82.29;96875.94;5015871;28;20035;-90
2021/11/26 04:30:22;;;;;;;7.55;4.60;;;;;;;5.36;82.34;96860.13;5036430;28;20036;-88
2021/11/26 04:32:49;;;;;;;11.40;5.75;;;;;;;5.37;82.14;96904.25;5011989;28;20075;-89
2021/11/26 04:35:15;;;;;;;14.60;7.72;;;;;;;5.21;83.12;96863.56;5005215;28;20100;-91
2021/11/26 04:37:41;;;;;;;13.40;6.38;;;;;;;5.18;83.14;96876.97;5013426;28;20115;-91
2021/11/26 04:40:08;;;;;;;16.70;9.15;;;;;;;5.32;83.66;96903.66;5021308;28;20116;-90
2021/11/26 04:42:35;;;;;;;14.88;7.68;;;;;;;5.02;85.85;96870.72;5005010;28;20104;-91
2021/11/26 04:45:02;;;;;;;15.40;9.35;;;;;;;4.91;87.05;96869.50;5006356;28;20041;-89
2021/11/26 04:47:28;;;;;;;12.60;6.10;;;;;;;5.10;85.85;96895.06;5025393;28;20127;-92
2021/11/26 04:49:54;;;;;;;14.93;8.40;;;;;;;4.89;86.50;96881.97;5031337;28;20537;-91
2021/11/26 04:52:19;;;;;;;12.63;5.85;;;;;;;5.03;86.02;96883.06;5009022;28;20044;-90
2021/11/26 04:54:45;;;;;;;14.70;8.65;;;;;;;5.01;86.62;96880.50;5014162;28;20059;-89
2021/11/26 04:57:11;;;;;;;15.30;8.32;;;;;;;5.00;86.04;96860.22;5020219;28;20053;-90
2021/11/26 04:59:46;;;;;;;15.07;6.80;;;;;;;4.97;85.59;96838.31;5005300;28;20034;-91
2021/11/26 05:02:25;;;;;;;13.50;6.60;;;;;;;4.91;84.28;96797.97;5030651;28;20121;-92
2021/11/26 05:05:30;;;;;;;9.30;5.30;;;;;;;5.04;84.17;96810.59;5032087;28;20041;-92
2021/11/26 05:08:25;;;;;;;14.95;7.00;;;;;;;5.13;83.99;96836.59;5044734;28;20072;-92
2021/11/26 05:10:54;;;;;;;9.55;5.43;;;;;;;5.58;84.02;96912.88;5030342;28;20045;-90
2021/11/26 05:13:23;;;;;;;13.60;6.22;;;;;;;5.50;83.60;96921.25;5042745;28;20484;-91
2021/11/26 05:15:49;;;;;;;21.67;10.80;;;;;;;5.36;83.48;96899.88;5025244;28;20116;-90
2021/11/26 05:18:15;;;;;;;8.10;3.60;;;;;;;5.54;83.11;96890.97;5027904;28;20060;-89
2021/11/26 05:20:42;;;;;;;16.92;8.82;;;;;;;5.25;82.72;96841.28;5007156;28;20072;-90
2021/11/26 05:23:09;;;;;;;15.45;8.48;;;;;;;5.52;82.43;96882.25;5012959;28;20061;-89
2021/11/26 05:29:29;;;;;;;11.35;5.95;;;;;;;5.86;81.49;96884.84;5061754;28;20110;-92
2021/11/26 05:31:54;;;;;;;11.27;5.43;;;;;;;5.72;81.48;96836.94;5036849;28;20029;-91
2021/11/26 05:34:46;;;;;;;23.20;11.57;;;;;;;5.84;81.63;96878.75;5014122;28;20064;-92
2021/11/26 05:37:12;;;;;;;29.33;13.38;;;;;;;5.74;81.55;96835.06;5013421;28;20094;-74
2021/11/26 05:39:37;;;;;;;16.95;9.18;;;;;;;5.77;81.46;96844.66;5018211;28;20032;-92
2021/11/26 05:42:03;;;;;;;20.33;10.30;;;;;;;5.70;81.00;96814.94;5016033;28;20557;-92
2021/11/26 05:44:29;;;;;;;21.17;9.65;;;;;;;6.00;81.33;96834.50;5034476;28;20071;-74
2021/11/26 05:46:55;;;;;;;13.82;7.45;;;;;;;5.97;80.13;96834.69;5035253;28;20033;-90
2021/11/26 05:49:21;;;;;;;19.40;8.48;;;;;;;5.91;80.01;96805.84;5038947;28;20485;-90
2021/11/26 05:51:47;;;;;;;16.67;8.95;;;;;;;6.18;79.18;96851.25;5031702;28;20150;-90
2021/11/26 05:54:13;;;;;;;13.45;7.63;;;;;;;5.99;79.37;96824.00;5018977;28;20043;-91
2021/11/26 05:57:17;;;;;;;16.73;9.70;;;;;;;5.87;80.62;96860.03;5004008;28;20060;-90
2021/11/26 05:59:42;;;;;;;22.08;11.00;;;;;;;5.32;86.34;96824.13;5033754;28;20032;-89
2021/11/26 06:02:08;;;;;;;17.80;9.95;;;;;;;5.53;83.13;96793.78;5024650;28;20021;-89
2021/11/26 06:04:34;;;;;;;16.92;9.02;;;;;;;5.96;81.44;96819.72;5038334;28;20026;-89
2021/11/26 06:06:59;;;;;;;19.55;8.35;;;;;;;5.92;79.86;96796.94;5022371;28;20470;-91
2021/11/26 06:19:40;;;;;;;11.55;6.22;;;;;;;6.41;77.21;96828.69;5050485;28;20045;-90
2021/11/26 06:22:12;;;;;;;14.00;6.05;;;;;;;6.35;76.69;96795.38;5007381;28;20053;-90
2021/11/26 06:24:38;;;;;;;10.65;4.72;;;;;;;6.46;76.40;96802.72;5006515;28;20029;-90
2021/11/26 06:27:07;;;;;;;13.73;8.30;;;;;;;6.16;76.29;96752.22;5016338;28;20029;-88
2021/11/26 06:29:33;;;;;;;13.60;6.10;;;;;;;6.28;76.17;96758.63;5025843;28;20087;-89
2021/11/26 06:31:59;;;;;;;13.65;7.57;;;;;;;6.06;76.18;96699.75;5041315;28;20040;-87
2021/11/26 06:34:30;;;;;;;11.70;6.18;;;;;;;6.35;76.89;96731.63;5027898;28;20020;-91
2021/11/26 06:36:56;;;;;;;22.70;7.53;;;;;;;6.29;76.46;96694.81;5025598;28;20028;-90
2021/11/26 06:39:21;;;;;;;12.68;6.00;;;;;;;6.47;76.89;96724.75;5003848;28;20407;-76
2021/11/26 06:41:47;;;;;;;12.77;6.05;;;;;;;6.60;77.07;96732.84;5027701;28;20471;-75
2021/11/26 06:44:13;;;;;;;22.30;11.43;;;;;;;6.65;77.22;96728.97;5017039;28;20408;-75
2021/11/26 06:46:38;;;;;;;18.45;8.93;;;;;;;6.68;76.13;96714.63;5027790;28;20029;-78
2021/11/26 06:49:04;;;;;;;18.27;10.25;;;;;;;6.82;75.59;96757.19;5008991;28;20032;-77
2021/11/26 06:51:33;;;;;;;16.88;8.45;;;;;;;6.91;75.01;96735.38;5012113;28;20461;-92
2021/11/26 06:54:01;;;;;;;10.10;6.72;;;;;;;6.92;74.78;96716.66;5016622;28;20088;-91
2021/11/26 06:56:27;;;;;;;12.38;6.63;;;;;;;7.21;73.61;96759.25;5002087;28;20422;-88
2021/11/26 06:58:57;;;;;;;14.27;6.43;;;;;;;6.86;73.60;96746.28;5006346;28;20082;-80
2021/11/26 07:01:31;;;;;;;13.32;6.38;;;;;;;6.98;73.81;96726.94;5018060;28;20025;-89
2021/11/26 07:04:04;;;;;;;9.68;5.68;;;;;;;6.94;73.96;96764.44;5007899;28;20108;-89
2021/11/26 07:06:33;;;;;;;15.13;8.13;;;;;;;6.73;74.75;96732.03;5024119;28;20029;-88
2021/11/26 07:08:59;;;;;;;11.57;7.32;;;;;;;6.90;74.83;96763.75;5020268;28;20076;-89
2021/11/26 07:11:47;;;;;;;13.43;7.53;;;;;;;6.64;74.52;96714.00;5009357;28;20025;-89
2021/11/26 07:14:13;;;;;;;7.35;4.50;;;;;;;7.04;74.20;96731.88;5025085;28;20035;-90
2021/11/26 07:16:39;;;;;;;12.02;5.75;;;;;;;6.94;74.37;96741.38;5010262;28;20037;-90
2021/11/26 07:19:13;;;;;;;9.18;4.53;;;;;;;6.69;74.04;96666.72;5022872;28;20036;-89
2021/11/26 07:21:46;;;;;;;12.95;6.45;;;;;;;6.55;74.60;96678.19;5018418;28;20043;-89
2021/11/26 07:24:11;;;;;;;;;;;;;;;6.87;74.67;96710.78;5023475;28;20037;-89
2021/11/26 07:26:50;;;;;;;10.88;6.22;;;;;;;6.77;74.66;96693.69;5059636;28;20398;-90
2021/11/26 07:29:25;;;;;;;18.00;8.82;;;;;;;6.67;74.63;96678.41;5042476;28;20035;-91
2021/11/26 07:31:52;;;;;;;12.50;6.13;;;;;;;6.79;74.57;96667.03;5009838;28;20582;-87
2021/11/26 07:34:18;;;;;;;10.38;6.18;;;;;;;6.73;74.15;96665.59;5004971;28;20038;-89
2021/11/26 07:36:54;;;;;;;20.77;9.75;;;;;;;6.81;74.57;96681.94;5013225;28;20409;-89
2021/11/26 07:39:23;;;;;;;13.73;6.13;;;;;;;6.89;74.05;96678.81;5020703;28;20036;-89
2021/11/26 07:41:52;;;;;;;11.48;6.60;;;;;;;6.88;73.74;96677.94;5024740;28;20157;-89
2021/11/26 07:44:21;;;;;;;8.65;4.35;;;;;;;6.73;73.95;96648.81;5024709;28;20095;-90
2021/11/26 07:46:47;;;;;;;19.60;6.90;;;;;;;6.66;73.91;96635.03;5013471;28;20049;-90
2021/11/26 07:49:24;;;;;;;14.77;7.93;;;;;;;6.93;73.68;96664.38;5004549;28;20025;-87
2021/11/26 07:51:51;;;;;;;16.70;8.93;;;;;;;6.81;73.29;96644.72;5005154;28;20038;-89
2021/11/26 07:54:17;;;;;;;11.95;7.25;;;;;;;6.45;72.85;96568.16;5016080;28;20090;-89
2021/11/26 07:56:42;;;;;;;8.05;5.15;;;;;;;6.73;72.88;96588.53;4990197;28;20025;-87
2021/11/26 07:59:08;;;;;;;15.18;7.65;;;;;;;6.76;72.96;96609.63;5003057;28;20414;-81
2021/11/26 08:01:34;;;;;;;19.10;9.43;;;;;;;6.87;73.49;96649.66;5034515;28;20476;-80
2021/11/26 08:04:01;;;;;;;12.20;6.32;;;;;;;6.79;73.64;96641.31;5026320;28;20025;-85
2021/11/26 08:06:26;;;;;;;14.52;8.95;;;;;;;6.77;73.93;96600.66;5028166;28;20025;-80
2021/11/26 08:08:52;;;;;;;18.88;9.23;;;;;;;6.93;74.68;96622.69;5024356;28;20068;-77
2021/11/26 08:11:18;;;;;;;20.38;9.40;;;;;;;6.86;73.18;96607.25;5020193;28;20047;-77
2021/11/26 08:13:44;;;;;;;13.25;7.07;;;;;;;6.87;73.09;96600.94;5005903;28;20404;-76
2021/11/26 08:16:19;;;;;;;9.38;4.97;;;;;;;6.94;73.39;96600.50;5017229;28;20117;-89
2021/11/26 08:18:45;;;;;;;21.38;9.55;;;;;;;6.52;73.27;96555.34;5018567;28;20029;-87
2021/11/26 08:21:25;;;;;;;9.55;4.30;;;;;;;6.71;72.38;96586.91;5001459;28;20085;-87
2021/11/26 09:01:55;;;;;;;33.95;12.05;;;;;;;6.85;71.11;96528.44;4971134;28;20175;-89
2021/11/26 09:26:39;;;;;;;6.63;4.05;;;;;;;7.81;67.11;96480.41;5121702;22;20551;-77
2021/11/26 09:29:05;;;;;;;9.45;5.28;;;;;;;7.76;68.19;96506.44;5050486;28;20021;-76
2021/11/26 09:31:31;;;;;;;8.52;5.55;;;;;;;7.49;68.80;96458.63;5016269;28;20467;-77
2021/11/26 09:33:57;;;;;;;10.32;5.80;;;;;;;7.36;68.87;96391.22;5015887;28;20025;-75
2021/11/26 09:36:24;;;;;;;12.73;4.20;;;;;;;7.29;69.75;96345.56;5016538;28;20079;-75
2021/11/26 09:38:50;;;;;;;12.15;6.65;;;;;;;7.23;70.36;96347.84;5032430;28;20021;-76
2021/11/26 09:41:16;;;;;;;11.77;6.43;;;;;;;7.18;70.19;96384.50;5016409;28;20025;-77
2021/11/26 09:43:43;;;;;;;10.85;6.43;;;;;;;7.25;69.98;96417.72;5032366;28;20021;-76
2021/11/26 09:46:09;;;;;;;10.20;6.80;;;;;;;7.29;69.83;96379.31;5032746;28;20028;-76
2021/11/26 09:48:37;;;;;;;12.18;7.25;;;;;;;7.33;69.80;96379.00;5015918;28;20079;-76
2021/11/26 09:51:05;;;;;;;8.05;4.43;;;;;;;7.40;69.15;96374.97;5013312;28;20029;-76
2021/11/26 09:53:31;;;;;;;9.75;5.75;;;;;;;7.48;68.86;96363.78;5017525;28;20033;-77
2021/11/26 09:56:00;;;;;;;10.10;5.90;;;;;;;7.62;68.18;96345.09;5014912;28;20480;-75
2021/11/26 09:58:28;;;;;;;17.40;10.65;;;;;;;7.88;67.32;96338.78;5022278;28;20124;-76
2021/11/26 10:00:54;;;;;;;12.20;6.63;;;;;;;8.07;66.37;96325.84;5031624;28;20048;-75
2021/11/26 10:03:39;;;;;;;12.23;5.85;;;;;;;8.30;65.91;96305.59;5033644;28;20033;-75
2021/11/26 10:06:05;;;;;;;8.60;5.20;;;;;;;8.41;65.38;96312.78;5033171;28;20115;-74
2021/11/26 10:08:31;;;;;;;10.77;6.85;;;;;;;8.55;64.86;96320.63;5033360;28;20111;-75
2021/11/26 10:11:01;;;;;;;13.88;7.10;;;;;;;8.58;64.32;96291.09;5016750;28;20055;-75
2021/11/26 10:13:31;;;;;;;10.30;5.90;;;;;;;8.77;64.11;96302.06;5016963;28;20028;-76
2021/11/26 10:15:57;;;;;;;9.07;5.28;;;;;;;8.93;63.37;96297.28;5016771;28;20086;-75
2021/11/26 10:18:27;;;;;;;8.63;6.03;;;;;;;8.89;63.49;96303.00;5016753;28;20030;-76
2021/11/26 10:21:02;;;;;;;12.30;6.78;;;;;;;8.79;63.50;96262.84;5016923;28;20032;-75
2021/11/26 10:23:31;;;;;;;12.98;6.45;;;;;;;8.93;62.80;96277.78;5016657;28;20071;-76
2021/11/26 10:26:18;;;;;;;6.93;4.18;;;;;;;9.19;62.54;96293.50;5016764;28;20044;-76
2021/11/26 10:28:50;;;;;;;7.68;3.78;;;;;;;9.18;62.44;96277.59;5015153;28;20048;-74
2021/11/26 10:31:34;;;;;;;9.20;5.40;;;;;;;9.26;62.36;96260.03;5016750;28;20024;-75
2021/11/26 10:34:06;;;;;;;5.10;3.22;;;;;;;9.08;62.06;96258.78;5016368;28;20103;-75
2021/11/26 10:36:47;;;;;;;8.53;3.93;;;;;;;9.18;62.39;96230.44;5032698;28;20523;-74
2021/11/26 10:39:20;;;;;;;11.82;6.65;;;;;;;9.23;62.22;96211.41;5032741;28;20271;-76
2021/11/26 10:41:51;;;;;;;10.85;5.47;;;;;;;9.27;62.11;96234.22;5016840;28;20119;-75
2021/11/26 10:44:20;;;;;;;11.00;6.35;;;;;;;9.25;62.00;96221.00;5016676;28;20040;-74
2021/11/26 10:47:36;;;;;;;10.73;4.40;;;;;;;9.56;61.20;96238.13;5016525;28;20159;-76
2021/11/26 10:59:49;;;;;;;8.45;5.40;;;;;;;13.91;48.15;96172.69;5050261;28;20473;-75
2021/11/26 11:02:25;;;;;;;9.82;5.57;;;;;;;14.42;46.78;96177.53;5032505;28;20393;-75
2021/11/26 11:04:51;;;;;;;7.47;4.63;;;;;;;12.99;49.45;96198.53;5047322;28;20025;-76
2021/11/26 11:07:18;;;;;;;15.68;9.23;;;;;;;12.44;51.56;96216.16;5031424;28;20382;-75
2021/11/26 11:09:51;;;;;;;7.53;3.90;;;;;;;12.28;51.63;96230.09;5017787;28;20033;-76
2021/11/26 11:12:18;;;;;;;6.95;3.63;;;;;;;12.24;51.85;96225.19;5015055;28;20024;-75
2021/11/26 11:14:57;;;;;;;10.02;5.43;;;;;;;12.05;52.67;96214.41;5015484;28;20132;-74
2021/11/26 11:17:27;;;;;;;8.93;4.75;;;;;;;10.95;55.05;96195.50;5032118;28;20060;-75
2021/11/26 11:20:00;;;;;;;16.58;5.80;;;;;;;10.34;57.35;96180.09;5016129;28;20028;-75
2021/11/26 11:22:26;;;;;;;13.95;6.50;;;;;;;10.17;58.41;96171.78;5032145;28;20021;-76
2021/11/26 11:24:52;;;;;;;7.22;3.53;;;;;;;10.17;58.64;96163.78;5015513;28;20033;-75
2021/11/26 11:27:18;;;;;;;13.63;8.13;;;;;;;10.07;59.12;96138.75;5015029;28;20052;-75
2021/11/26 11:29:44;;;;;;;7.53;3.88;;;;;;;9.94;59.49;96154.09;5015230;28;20118;-74
2021/11/26 11:32:10;;;;;;;13.93;6.00;;;;;;;9.96;59.79;96179.72;5015013;28;20024;-74
2021/11/26 11:34:36;;;;;;;7.32;4.45;;;;;;;9.92;59.86;96188.09;5015067;28;20032;-75
2021/11/26 11:37:06;;;;;;;12.98;5.95;;;;;;;9.88;59.91;96184.81;5014931;28;20479;-74
2021/11/26 11:39:52;;;;;;;7.40;4.72;;;;;;;9.85;60.29;96186.88;5032113;28;20100;-75
2021/11/26 11:42:31;;;;;;;7.47;4.30;;;;;;;9.85;60.34;96181.53;5015078;28;20147;-75
2021/11/26 11:45:10;;;;;;;6.20;4.43;;;;;;;9.91;60.18;96192.56;5011387;28;20025;-75
2021/11/26 11:47:42;;;;;;;6.93;3.72;;;;;;;9.82;60.34;96177.31;5031357;28;20029;-75
2021/11/26 11:50:11;;;;;;;10.70;6.00;;;;;;;9.81;60.68;96164.94;5014611;28;20040;-75
2021/11/26 11:53:00;;;;;;;11.65;5.80;;;;;;;9.80;60.60;96164.09;5014859;28;20040;-75
2021/11/26 11:55:38;;;;;;;9.75;5.60;;;;;;;9.80;60.98;96165.91;5015111;28;20056;-74
2021/11/26 11:58:19;;;;;;;16.13;8.75;;;;;;;9.74;61.29;96166.41;5015062;28;20041;-75
2021/11/26 12:00:47;;;;;;;13.52;4.75;;;;;;;9.60;61.22;96155.97;5031019;28;20044;-75
2021/11/26 12:03:22;;;;;;;19.13;6.60;;;;;;;9.56;61.97;96149.19;5014760;28;20463;-75
2021/11/26 12:05:59;;;;;;;10.45;4.65;;;;;;;9.62;62.05;96146.03;5031230;28;20404;-75
2021/11/26 12:08:25;;;;;;;13.70;5.80;;;;;;;9.50;62.14;96131.88;5014314;28;20029;-74
2021/11/26 12:11:00;;;;;;;15.15;7.90;;;;;;;9.63;62.33;96155.72;5014004;28;20040;-75
2021/11/26 12:13:34;;;;;;;17.30;6.57;;;;;;;9.61;62.34;96171.03;5014381;28;20421;-75
2021/11/26 12:16:12;;;;;;;7.63;4.05;;;;;;;9.86;61.10;96152.06;5030658;28;20041;-75
2021/11/26 12:18:41;;;;;;;13.77;7.18;;;;;;;9.77;62.11;96188.38;5014239;28;20119;-75
2021/11/26 12:21:07;;;;;;;5.28;3.33;;;;;;;9.74;61.61;96172.59;5030435;28;20044;-74
2021/11/26 12:23:47;;;;;;;5.78;2.92;;;;;;;9.71;61.48;96163.97;5014152;28;20116;-75
2021/11/26 12:28:43;;;;;;;11.80;5.97;;;;;;;9.76;62.30;96137.75;5031149;28;20025;-75
2021/11/26 12:31:10;;;;;;;5.57;3.58;;;;;;;10.10;60.63;96122.47;5014447;28;20473;-75
2021/11/26 12:33:37;;;;;;;6.07;3.78;;;;;;;10.33;60.07;96143.69;5013901;28;20461;-75
2021/11/26 12:36:09;;;;;;;7.18;5.00;;;;;;;10.77;59.03;96136.38;5013712;28;20067;-74
2021/11/26 12:38:37;;;;;;;6.85;3.47;;;;;;;11.83;55.58;96119.00;5030351;28;20037;-74
2021/11/26 12:41:04;;;;;;;5.35;3.33;;;;;;;12.82;52.71;96091.94;5048141;28;20488;-75
2021/11/26 12:43:47;;;;;;;4.55;3.17;;;;;;;13.98;49.30;96074.31;5030299;28;20063;-76
2021/11/26 12:46:39;;;;;;;5.20;3.50;;;;;;;14.81;47.56;96059.63;5013862;28;20036;-74
2021/11/26 12:51:55;;;;;;;9.32;5.57;;;;;;;15.69;45.30;96057.44;5031977;28;20059;-74
2021/11/26 12:54:30;;;;;;;7.78;5.57;;;;;;;15.50;45.56;96065.81;5030140;28;20614;-77
2021/11/26 12:56:58;;;;;;;9.05;4.78;;;;;;;14.76;46.72;96072.72;5013754;28;20083;-75
2021/11/26 12:59:42;;;;;;;12.35;7.20;;;;;;;14.69;47.46;96096.72;5013669;28;20044;-75
2021/11/26 13:02:10;;;;;;;4.88;3.60;;;;;;;14.93;46.49;96085.28;5030419;28;20036;-75
2021/11/26 13:04:47;;;;;;;10.20;6.20;;;;;;;14.25;48.04;96113.75;5013529;28;20053;-74
2021/11/26 13:07:13;;;;;;;8.93;4.97;;;;;;;13.72;49.79;96119.06;5013456;28;20033;-75
2021/11/26 13:09:45;;;;;;;5.10;3.53;;;;;;;13.91;49.08;96097.44;5029953;28;20032;-75
2021/11/26 13:12:11;;;;;;;10.45;6.15;;;;;;;14.32;48.22;96099.56;5013673;28;20025;-75
2021/11/26 13:14:56;;;;;;;5.55;4.10;;;;;;;14.80;47.01;96080.31;5013727;28;20605;-75
2021/11/26 13:17:31;;;;;;;12.07;6.03;;;;;;;14.28;48.63;96100.84;5013569;28;20028;-75
2021/11/26 13:20:24;;;;;;;5.18;3.35;;;;;;;13.85;49.08;96092.66;5013524;28;20492;-74
2021/11/26 13:22:49;;;;;;;;;;;;;;;12.84;51.93;96108.72;5013814;28;20037;-74
2021/11/26 13:25:18;;;;;;;10.70;5.35;;;;;;;12.35;53.07;96086.47;5029889;28;19921;-76
2021/11/26 13:28:22;;;;;;;11.88;6.15;;;;;;;12.30;53.99;96079.84;5012445;28;20122;-74